sensor_id;sensor_type;location;lat;lon;timestamp;P1;durP1;ratioP1;P2;durP2;ratioP2
58208;SDS011;44006;52.028;4.696;2022-08-19T00:00:26;8.53;;;5.33;;
58208;SDS011;44006;52.028;4.696;2022-08-19T00:02:52;7.45;;;5.20;;
58208;SDS011;44006;52.028;4.696;2022-08-19T00:05:17;8.48;;;4.85;;
58208;SDS011;44006;52.028;4.696;2022-08-19T00:07:43;7.57;;;4.68;;
58208;SDS011;44006;52.028;4.696;2022-08-19T00:10:11;7.20;;;4.70;;
58208;SDS011;44006;52.028;4.696;2022-08-19T00:12:36;7.38;;;5.22;;
58208;SDS011;44006;52.028;4.696;2022-08-19T00:15:04;7.88;;;4.85;;
58208;SDS011;44006;52.028;4.696;2022-08-19T00:17:29;6.55;;;4.90;;
58208;SDS011;44006;52.028;4.696;2022-08-19T00:19:54;8.52;;;5.10;;
58208;SDS011;44006;52.028;4.696;2022-08-19T00:22:20;9.23;;;5.27;;
58208;SDS011;44006;52.028;4.696;2022-08-19T00:24:45;10.90;;;6.07;;
58208;SDS011;44006;52.028;4.696;2022-08-19T00:27:10;8.02;;;5.40;;
58208;SDS011;44006;52.028;4.696;2022-08-19T00:29:36;8.85;;;6.30;;
58208;SDS011;44006;52.028;4.696;2022-08-19T00:32:01;11.93;;;6.03;;
58208;SDS011;44006;52.028;4.696;2022-08-19T00:34:26;8.98;;;7.00;;
58208;SDS011;44006;52.028;4.696;2022-08-19T00:36:53;11.60;;;7.43;;
58208;SDS011;44006;52.028;4.696;2022-08-19T00:39:19;10.52;;;7.32;;
58208;SDS011;44006;52.028;4.696;2022-08-19T00:41:45;12.52;;;8.70;;
58208;SDS011;44006;52.028;4.696;2022-08-19T00:44:16;13.75;;;8.45;;
58208;SDS011;44006;52.028;4.696;2022-08-19T00:46:43;10.35;;;8.63;;
58208;SDS011;44006;52.028;4.696;2022-08-19T00:49:13;13.70;;;9.05;;
58208;SDS011;44006;52.028;4.696;2022-08-19T00:51:40;14.02;;;9.90;;
58208;SDS011;44006;52.028;4.696;2022-08-19T00:54:06;12.02;;;9.43;;
58208;SDS011;44006;52.028;4.696;2022-08-19T00:56:31;16.55;;;9.07;;
58208;SDS011;44006;52.028;4.696;2022-08-19T00:58:57;15.75;;;9.13;;
58208;SDS011;44006;52.028;4.696;2022-08-19T01:01:23;14.38;;;8.70;;
58208;SDS011;44006;52.028;4.696;2022-08-19T01:03:48;14.18;;;9.38;;
58208;SDS011;44006;52.028;4.696;2022-08-19T01:06:13;14.60;;;9.53;;
58208;SDS011;44006;52.028;4.696;2022-08-19T01:08:39;12.48;;;9.18;;
58208;SDS011;44006;52.028;4.696;2022-08-19T01:11:04;11.95;;;8.75;;
58208;SDS011;44006;52.028;4.696;2022-08-19T01:13:30;14.45;;;9.27;;
58208;SDS011;44006;52.028;4.696;2022-08-19T01:15:58;12.25;;;9.50;;
58208;SDS011;44006;52.028;4.696;2022-08-19T01:18:25;11.98;;;9.35;;
58208;SDS011;44006;52.028;4.696;2022-08-19T01:20:51;12.82;;;9.65;;
58208;SDS011;44006;52.028;4.696;2022-08-19T01:23:18;13.95;;;9.18;;
58208;SDS011;44006;52.028;4.696;2022-08-19T01:25:50;13.75;;;9.73;;
58208;SDS011;44006;52.028;4.696;2022-08-19T01:28:21;14.35;;;9.25;;
58208;SDS011;44006;52.028;4.696;2022-08-19T01:30:46;13.32;;;9.43;;
58208;SDS011;44006;52.028;4.696;2022-08-19T01:33:13;12.93;;;9.48;;
58208;SDS011;44006;52.028;4.696;2022-08-19T01:35:38;12.32;;;9.85;;
58208;SDS011;44006;52.028;4.696;2022-08-19T01:38:05;13.70;;;9.52;;
58208;SDS011;44006;52.028;4.696;2022-08-19T01:40:32;14.13;;;10.45;;
58208;SDS011;44006;52.028;4.696;2022-08-19T01:42:59;14.27;;;10.15;;
58208;SDS011;44006;52.028;4.696;2022-08-19T01:45:25;13.20;;;10.10;;
58208;SDS011;44006;52.028;4.696;2022-08-19T01:47:50;13.50;;;10.45;;
58208;SDS011;44006;52.028;4.696;2022-08-19T01:50:16;15.82;;;10.32;;
58208;SDS011;44006;52.028;4.696;2022-08-19T01:52:41;15.75;;;10.65;;
58208;SDS011;44006;52.028;4.696;2022-08-19T01:55:08;12.40;;;10.25;;
58208;SDS011;44006;52.028;4.696;2022-08-19T01:57:34;13.52;;;10.20;;
58208;SDS011;44006;52.028;4.696;2022-08-19T01:59:59;12.75;;;10.55;;
58208;SDS011;44006;52.028;4.696;2022-08-19T02:02:26;15.50;;;11.48;;
58208;SDS011;44006;52.028;4.696;2022-08-19T02:04:51;17.23;;;11.73;;
58208;SDS011;44006;52.028;4.696;2022-08-19T02:07:19;16.80;;;11.27;;
58208;SDS011;44006;52.028;4.696;2022-08-19T02:09:45;18.17;;;11.30;;
58208;SDS011;44006;52.028;4.696;2022-08-19T02:12:10;15.68;;;11.27;;
58208;SDS011;44006;52.028;4.696;2022-08-19T02:14:36;16.50;;;10.88;;
58208;SDS011;44006;52.028;4.696;2022-08-19T02:17:01;18.13;;;11.52;;
58208;SDS011;44006;52.028;4.696;2022-08-19T02:19:27;15.77;;;10.80;;
58208;SDS011;44006;52.028;4.696;2022-08-19T02:21:52;13.70;;;11.32;;
58208;SDS011;44006;52.028;4.696;2022-08-19T02:24:18;14.80;;;11.10;;
58208;SDS011;44006;52.028;4.696;2022-08-19T02:26:43;12.57;;;10.20;;
58208;SDS011;44006;52.028;4.696;2022-08-19T02:29:08;16.07;;;10.83;;
58208;SDS011;44006;52.028;4.696;2022-08-19T02:31:33;14.75;;;10.80;;
58208;SDS011;44006;52.028;4.696;2022-08-19T02:33:58;15.07;;;11.20;;
58208;SDS011;44006;52.028;4.696;2022-08-19T02:36:24;14.35;;;11.00;;
58208;SDS011;44006;52.028;4.696;2022-08-19T02:38:50;14.57;;;10.93;;
58208;SDS011;44006;52.028;4.696;2022-08-19T02:41:17;13.70;;;10.57;;
58208;SDS011;44006;52.028;4.696;2022-08-19T02:43:43;15.00;;;10.20;;
58208;SDS011;44006;52.028;4.696;2022-08-19T02:48:39;14.00;;;10.07;;
58208;SDS011;44006;52.028;4.696;2022-08-19T02:51:04;13.77;;;10.48;;
58208;SDS011;44006;52.028;4.696;2022-08-19T02:53:30;12.65;;;10.55;;
58208;SDS011;44006;52.028;4.696;2022-08-19T02:55:55;14.23;;;10.85;;
58208;SDS011;44006;52.028;4.696;2022-08-19T02:58:21;14.35;;;10.40;;
58208;SDS011;44006;52.028;4.696;2022-08-19T03:00:49;14.52;;;11.30;;
58208;SDS011;44006;52.028;4.696;2022-08-19T03:03:15;14.43;;;11.25;;
58208;SDS011;44006;52.028;4.696;2022-08-19T03:05:41;18.60;;;11.77;;
58208;SDS011;44006;52.028;4.696;2022-08-19T03:08:06;15.50;;;11.98;;
58208;SDS011;44006;52.028;4.696;2022-08-19T03:10:32;16.88;;;12.70;;
58208;SDS011;44006;52.028;4.696;2022-08-19T03:12:57;17.75;;;13.35;;
58208;SDS011;44006;52.028;4.696;2022-08-19T03:15:22;18.20;;;14.18;;
58208;SDS011;44006;52.028;4.696;2022-08-19T03:17:48;21.48;;;15.40;;
58208;SDS011;44006;52.028;4.696;2022-08-19T03:20:13;22.37;;;15.40;;
58208;SDS011;44006;52.028;4.696;2022-08-19T03:22:38;23.00;;;17.27;;
58208;SDS011;44006;52.028;4.696;2022-08-19T03:25:03;22.37;;;15.97;;
58208;SDS011;44006;52.028;4.696;2022-08-19T03:27:29;22.00;;;16.17;;
58208;SDS011;44006;52.028;4.696;2022-08-19T03:29:54;26.23;;;18.17;;
58208;SDS011;44006;52.028;4.696;2022-08-19T03:32:19;24.45;;;17.58;;
58208;SDS011;44006;52.028;4.696;2022-08-19T03:34:47;28.98;;;18.45;;
58208;SDS011;44006;52.028;4.696;2022-08-19T03:37:12;26.70;;;18.85;;
58208;SDS011;44006;52.028;4.696;2022-08-19T03:39:38;26.30;;;19.37;;
58208;SDS011;44006;52.028;4.696;2022-08-19T03:42:03;30.33;;;20.27;;
58208;SDS011;44006;52.028;4.696;2022-08-19T03:44:30;30.38;;;21.17;;
58208;SDS011;44006;52.028;4.696;2022-08-19T03:46:57;32.03;;;20.58;;
58208;SDS011;44006;52.028;4.696;2022-08-19T03:49:25;27.13;;;19.33;;
58208;SDS011;44006;52.028;4.696;2022-08-19T03:51:51;29.77;;;19.67;;
58208;SDS011;44006;52.028;4.696;2022-08-19T03:54:19;31.55;;;21.30;;
58208;SDS011;44006;52.028;4.696;2022-08-19T03:56:45;28.92;;;20.73;;
58208;SDS011;44006;52.028;4.696;2022-08-19T03:59:13;31.45;;;20.70;;
58208;SDS011;44006;52.028;4.696;2022-08-19T04:01:39;30.73;;;20.15;;
58208;SDS011;44006;52.028;4.696;2022-08-19T04:04:04;32.42;;;20.88;;
58208;SDS011;44006;52.028;4.696;2022-08-19T04:06:31;33.17;;;21.67;;
58208;SDS011;44006;52.028;4.696;2022-08-19T04:08:58;37.42;;;24.35;;
58208;SDS011;44006;52.028;4.696;2022-08-19T04:11:27;36.42;;;24.38;;
58208;SDS011;44006;52.028;4.696;2022-08-19T04:13:53;36.45;;;23.50;;
58208;SDS011;44006;52.028;4.696;2022-08-19T04:16:19;37.97;;;24.60;;
58208;SDS011;44006;52.028;4.696;2022-08-19T04:18:45;42.75;;;26.67;;
58208;SDS011;44006;52.028;4.696;2022-08-19T04:21:16;40.28;;;24.75;;
58208;SDS011;44006;52.028;4.696;2022-08-19T04:23:41;45.67;;;25.63;;
58208;SDS011;44006;52.028;4.696;2022-08-19T04:26:07;38.33;;;24.90;;
58208;SDS011;44006;52.028;4.696;2022-08-19T04:28:32;43.72;;;26.95;;
58208;SDS011;44006;52.028;4.696;2022-08-19T04:30:57;44.20;;;27.43;;
58208;SDS011;44006;52.028;4.696;2022-08-19T04:33:23;47.05;;;28.02;;
58208;SDS011;44006;52.028;4.696;2022-08-19T04:35:49;45.40;;;29.45;;
58208;SDS011;44006;52.028;4.696;2022-08-19T04:38:16;52.67;;;32.33;;
58208;SDS011;44006;52.028;4.696;2022-08-19T04:40:43;53.33;;;32.28;;
58208;SDS011;44006;52.028;4.696;2022-08-19T04:43:27;49.60;;;32.25;;
58208;SDS011;44006;52.028;4.696;2022-08-19T04:45:52;58.20;;;34.22;;
58208;SDS011;44006;52.028;4.696;2022-08-19T04:48:18;58.20;;;35.08;;
58208;SDS011;44006;52.028;4.696;2022-08-19T04:50:50;53.25;;;32.80;;
58208;SDS011;44006;52.028;4.696;2022-08-19T04:53:15;59.90;;;35.67;;
58208;SDS011;44006;52.028;4.696;2022-08-19T04:55:41;66.47;;;35.88;;
58208;SDS011;44006;52.028;4.696;2022-08-19T04:58:06;63.90;;;34.42;;
58208;SDS011;44006;52.028;4.696;2022-08-19T05:00:32;63.20;;;35.67;;
58208;SDS011;44006;52.028;4.696;2022-08-19T05:02:57;66.25;;;38.00;;
58208;SDS011;44006;52.028;4.696;2022-08-19T05:05:22;67.53;;;38.92;;
58208;SDS011;44006;52.028;4.696;2022-08-19T05:07:47;64.03;;;35.03;;
58208;SDS011;44006;52.028;4.696;2022-08-19T05:10:13;58.90;;;34.23;;
58208;SDS011;44006;52.028;4.696;2022-08-19T05:12:38;62.17;;;34.08;;
58208;SDS011;44006;52.028;4.696;2022-08-19T05:15:04;65.80;;;36.95;;
58208;SDS011;44006;52.028;4.696;2022-08-19T05:17:32;66.78;;;38.33;;
58208;SDS011;44006;52.028;4.696;2022-08-19T05:19:57;66.85;;;36.95;;
58208;SDS011;44006;52.028;4.696;2022-08-19T05:22:55;71.25;;;36.45;;
58208;SDS011;44006;52.028;4.696;2022-08-19T05:25:21;71.33;;;38.13;;
58208;SDS011;44006;52.028;4.696;2022-08-19T05:27:46;67.28;;;36.70;;
58208;SDS011;44006;52.028;4.696;2022-08-19T05:30:12;64.53;;;35.33;;
58208;SDS011;44006;52.028;4.696;2022-08-19T05:32:38;77.22;;;37.47;;
58208;SDS011;44006;52.028;4.696;2022-08-19T05:35:05;72.65;;;38.90;;
58208;SDS011;44006;52.028;4.696;2022-08-19T05:37:30;77.53;;;38.35;;
58208;SDS011;44006;52.028;4.696;2022-08-19T05:39:56;65.75;;;34.72;;
58208;SDS011;44006;52.028;4.696;2022-08-19T05:42:21;61.63;;;32.50;;
58208;SDS011;44006;52.028;4.696;2022-08-19T05:44:48;63.63;;;34.90;;
58208;SDS011;44006;52.028;4.696;2022-08-19T05:47:14;57.53;;;33.28;;
58208;SDS011;44006;52.028;4.696;2022-08-19T05:49:39;61.78;;;34.25;;
58208;SDS011;44006;52.028;4.696;2022-08-19T05:52:06;66.38;;;33.97;;
58208;SDS011;44006;52.028;4.696;2022-08-19T05:54:32;70.03;;;37.45;;
58208;SDS011;44006;52.028;4.696;2022-08-19T05:56:57;56.05;;;33.40;;
58208;SDS011;44006;52.028;4.696;2022-08-19T05:59:23;68.28;;;36.95;;
58208;SDS011;44006;52.028;4.696;2022-08-19T06:01:49;62.65;;;34.42;;
58208;SDS011;44006;52.028;4.696;2022-08-19T06:06:45;60.95;;;34.35;;
58208;SDS011;44006;52.028;4.696;2022-08-19T06:09:11;56.67;;;33.85;;
58208;SDS011;44006;52.028;4.696;2022-08-19T06:14:05;68.38;;;36.85;;
58208;SDS011;44006;52.028;4.696;2022-08-19T06:16:32;62.53;;;35.58;;
58208;SDS011;44006;52.028;4.696;2022-08-19T06:19:00;64.43;;;36.92;;
58208;SDS011;44006;52.028;4.696;2022-08-19T06:21:27;67.18;;;39.88;;
58208;SDS011;44006;52.028;4.696;2022-08-19T06:23:52;69.22;;;38.88;;
58208;SDS011;44006;52.028;4.696;2022-08-19T06:26:19;64.85;;;37.08;;
58208;SDS011;44006;52.028;4.696;2022-08-19T06:28:44;57.00;;;33.17;;
58208;SDS011;44006;52.028;4.696;2022-08-19T06:31:14;63.92;;;36.63;;
58208;SDS011;44006;52.028;4.696;2022-08-19T06:33:41;57.28;;;35.15;;
58208;SDS011;44006;52.028;4.696;2022-08-19T06:36:07;65.78;;;35.83;;
58208;SDS011;44006;52.028;4.696;2022-08-19T06:38:32;61.55;;;34.65;;
58208;SDS011;44006;52.028;4.696;2022-08-19T06:41:01;65.00;;;38.03;;
58208;SDS011;44006;52.028;4.696;2022-08-19T06:43:26;65.57;;;34.85;;
58208;SDS011;44006;52.028;4.696;2022-08-19T06:45:52;65.30;;;35.43;;
58208;SDS011;44006;52.028;4.696;2022-08-19T06:48:17;60.47;;;35.37;;
58208;SDS011;44006;52.028;4.696;2022-08-19T06:50:43;64.50;;;36.85;;
58208;SDS011;44006;52.028;4.696;2022-08-19T06:53:08;57.63;;;34.80;;
58208;SDS011;44006;52.028;4.696;2022-08-19T06:55:33;58.33;;;34.77;;
58208;SDS011;44006;52.028;4.696;2022-08-19T06:58:01;63.37;;;36.83;;
58208;SDS011;44006;52.028;4.696;2022-08-19T07:00:27;70.80;;;37.88;;
58208;SDS011;44006;52.028;4.696;2022-08-19T07:02:52;62.05;;;37.55;;
58208;SDS011;44006;52.028;4.696;2022-08-19T07:05:18;53.30;;;35.47;;
58208;SDS011;44006;52.028;4.696;2022-08-19T07:07:43;54.20;;;34.35;;
58208;SDS011;44006;52.028;4.696;2022-08-19T07:10:08;58.75;;;34.53;;
58208;SDS011;44006;52.028;4.696;2022-08-19T07:12:34;60.08;;;33.95;;
58208;SDS011;44006;52.028;4.696;2022-08-19T07:15:00;48.40;;;31.98;;
58208;SDS011;44006;52.028;4.696;2022-08-19T07:17:25;49.33;;;31.30;;
58208;SDS011;44006;52.028;4.696;2022-08-19T07:19:51;51.88;;;32.65;;
58208;SDS011;44006;52.028;4.696;2022-08-19T07:22:16;50.40;;;32.03;;
58208;SDS011;44006;52.028;4.696;2022-08-19T07:24:43;51.17;;;32.05;;
58208;SDS011;44006;52.028;4.696;2022-08-19T07:27:08;51.22;;;32.38;;
58208;SDS011;44006;52.028;4.696;2022-08-19T07:29:35;49.13;;;31.52;;
58208;SDS011;44006;52.028;4.696;2022-08-19T07:32:00;50.90;;;30.98;;
58208;SDS011;44006;52.028;4.696;2022-08-19T07:34:27;53.65;;;34.47;;
58208;SDS011;44006;52.028;4.696;2022-08-19T07:36:52;49.20;;;30.88;;
58208;SDS011;44006;52.028;4.696;2022-08-19T07:39:19;53.75;;;33.63;;
58208;SDS011;44006;52.028;4.696;2022-08-19T07:41:45;51.45;;;32.42;;
58208;SDS011;44006;52.028;4.696;2022-08-19T07:44:11;55.50;;;32.83;;
58208;SDS011;44006;52.028;4.696;2022-08-19T07:46:38;48.47;;;31.85;;
58208;SDS011;44006;52.028;4.696;2022-08-19T07:49:04;47.08;;;30.40;;
58208;SDS011;44006;52.028;4.696;2022-08-19T07:51:30;48.25;;;32.60;;
58208;SDS011;44006;52.028;4.696;2022-08-19T07:53:55;52.80;;;31.95;;
58208;SDS011;44006;52.028;4.696;2022-08-19T07:56:21;50.25;;;32.85;;
58208;SDS011;44006;52.028;4.696;2022-08-19T07:58:47;47.40;;;32.13;;
58208;SDS011;44006;52.028;4.696;2022-08-19T08:01:14;47.33;;;31.25;;
58208;SDS011;44006;52.028;4.696;2022-08-19T08:03:40;47.40;;;31.55;;
58208;SDS011;44006;52.028;4.696;2022-08-19T08:06:24;51.90;;;30.50;;
58208;SDS011;44006;52.028;4.696;2022-08-19T08:09:09;46.90;;;30.55;;
58208;SDS011;44006;52.028;4.696;2022-08-19T08:11:51;43.63;;;29.77;;
58208;SDS011;44006;52.028;4.696;2022-08-19T08:14:17;45.35;;;29.52;;
58208;SDS011;44006;52.028;4.696;2022-08-19T08:16:43;40.83;;;29.50;;
58208;SDS011;44006;52.028;4.696;2022-08-19T08:19:10;40.78;;;28.88;;
58208;SDS011;44006;52.028;4.696;2022-08-19T08:21:35;40.92;;;29.23;;
58208;SDS011;44006;52.028;4.696;2022-08-19T08:24:00;42.00;;;28.25;;
58208;SDS011;44006;52.028;4.696;2022-08-19T08:26:26;40.47;;;29.27;;
58208;SDS011;44006;52.028;4.696;2022-08-19T08:28:51;47.03;;;28.98;;
58208;SDS011;44006;52.028;4.696;2022-08-19T08:31:16;41.95;;;27.85;;
58208;SDS011;44006;52.028;4.696;2022-08-19T08:33:43;41.20;;;28.75;;
58208;SDS011;44006;52.028;4.696;2022-08-19T08:36:09;39.60;;;29.63;;
58208;SDS011;44006;52.028;4.696;2022-08-19T08:38:35;41.83;;;29.25;;
58208;SDS011;44006;52.028;4.696;2022-08-19T08:41:03;50.55;;;30.00;;
58208;SDS011;44006;52.028;4.696;2022-08-19T08:43:35;43.60;;;30.10;;
58208;SDS011;44006;52.028;4.696;2022-08-19T08:46:08;44.17;;;30.67;;
58208;SDS011;44006;52.028;4.696;2022-08-19T08:48:44;45.75;;;29.20;;
58208;SDS011;44006;52.028;4.696;2022-08-19T08:51:16;46.63;;;28.63;;
58208;SDS011;44006;52.028;4.696;2022-08-19T08:53:43;42.53;;;28.63;;
58208;SDS011;44006;52.028;4.696;2022-08-19T08:56:10;46.47;;;28.85;;
58208;SDS011;44006;52.028;4.696;2022-08-19T08:58:44;42.72;;;28.50;;
58208;SDS011;44006;52.028;4.696;2022-08-19T09:01:10;38.40;;;28.15;;
58208;SDS011;44006;52.028;4.696;2022-08-19T09:03:36;36.88;;;27.17;;
58208;SDS011;44006;52.028;4.696;2022-08-19T09:06:03;41.13;;;26.55;;
58208;SDS011;44006;52.028;4.696;2022-08-19T09:11:06;37.83;;;28.25;;
58208;SDS011;44006;52.028;4.696;2022-08-19T09:18:38;42.97;;;25.73;;
58208;SDS011;44006;52.028;4.696;2022-08-19T09:21:04;39.47;;;28.02;;
58208;SDS011;44006;52.028;4.696;2022-08-19T09:23:29;37.30;;;26.83;;
58208;SDS011;44006;52.028;4.696;2022-08-19T09:25:55;37.60;;;26.23;;
58208;SDS011;44006;52.028;4.696;2022-08-19T09:28:21;39.03;;;26.02;;
58208;SDS011;44006;52.028;4.696;2022-08-19T09:30:46;37.47;;;25.23;;
58208;SDS011;44006;52.028;4.696;2022-08-19T09:33:11;37.93;;;25.20;;
58208;SDS011;44006;52.028;4.696;2022-08-19T09:35:36;32.50;;;23.35;;
58208;SDS011;44006;52.028;4.696;2022-08-19T09:38:02;35.00;;;23.05;;
58208;SDS011;44006;52.028;4.696;2022-08-19T09:40:27;34.90;;;22.67;;
58208;SDS011;44006;52.028;4.696;2022-08-19T09:42:53;30.58;;;23.17;;
58208;SDS011;44006;52.028;4.696;2022-08-19T09:45:20;31.98;;;21.33;;
58208;SDS011;44006;52.028;4.696;2022-08-19T09:47:46;29.90;;;21.48;;
58208;SDS011;44006;52.028;4.696;2022-08-19T09:50:12;35.07;;;21.17;;
58208;SDS011;44006;52.028;4.696;2022-08-19T09:52:37;28.15;;;20.65;;
58208;SDS011;44006;52.028;4.696;2022-08-19T09:55:05;35.35;;;20.67;;
58208;SDS011;44006;52.028;4.696;2022-08-19T09:57:30;28.38;;;18.88;;
58208;SDS011;44006;52.028;4.696;2022-08-19T09:59:56;25.85;;;19.23;;
58208;SDS011;44006;52.028;4.696;2022-08-19T10:02:21;23.40;;;19.33;;
58208;SDS011;44006;52.028;4.696;2022-08-19T10:04:46;25.60;;;18.70;;
58208;SDS011;44006;52.028;4.696;2022-08-19T10:07:30;27.67;;;19.00;;
58208;SDS011;44006;52.028;4.696;2022-08-19T10:09:55;23.47;;;18.00;;
58208;SDS011;44006;52.028;4.696;2022-08-19T10:12:20;29.20;;;18.92;;
58208;SDS011;44006;52.028;4.696;2022-08-19T10:14:45;28.95;;;18.77;;
58208;SDS011;44006;52.028;4.696;2022-08-19T10:17:11;19.13;;;16.67;;
58208;SDS011;44006;52.028;4.696;2022-08-19T10:19:36;24.10;;;16.95;;
58208;SDS011;44006;52.028;4.696;2022-08-19T10:22:03;21.60;;;16.80;;
58208;SDS011;44006;52.028;4.696;2022-08-19T10:24:29;24.58;;;19.20;;
58208;SDS011;44006;52.028;4.696;2022-08-19T10:26:55;27.83;;;18.23;;
58208;SDS011;44006;52.028;4.696;2022-08-19T10:29:21;17.23;;;13.55;;
58208;SDS011;44006;52.028;4.696;2022-08-19T10:31:47;18.43;;;12.83;;
58208;SDS011;44006;52.028;4.696;2022-08-19T10:34:13;16.88;;;11.70;;
58208;SDS011;44006;52.028;4.696;2022-08-19T10:36:38;15.17;;;10.83;;
58208;SDS011;44006;52.028;4.696;2022-08-19T10:39:05;18.48;;;13.43;;
58208;SDS011;44006;52.028;4.696;2022-08-19T10:41:32;20.60;;;14.52;;
58208;SDS011;44006;52.028;4.696;2022-08-19T10:43:59;22.63;;;14.13;;
58208;SDS011;44006;52.028;4.696;2022-08-19T10:46:25;17.35;;;13.55;;
58208;SDS011;44006;52.028;4.696;2022-08-19T10:48:51;19.92;;;13.27;;
58208;SDS011;44006;52.028;4.696;2022-08-19T10:51:16;20.87;;;12.53;;
58208;SDS011;44006;52.028;4.696;2022-08-19T10:54:01;18.70;;;13.40;;
58208;SDS011;44006;52.028;4.696;2022-08-19T10:56:27;23.67;;;13.68;;
58208;SDS011;44006;52.028;4.696;2022-08-19T10:59:11;15.35;;;12.10;;
58208;SDS011;44006;52.028;4.696;2022-08-19T11:01:39;16.73;;;11.60;;
58208;SDS011;44006;52.028;4.696;2022-08-19T11:04:04;17.10;;;10.43;;
58208;SDS011;44006;52.028;4.696;2022-08-19T11:06:33;13.73;;;9.93;;
58208;SDS011;44006;52.028;4.696;2022-08-19T11:08:58;17.52;;;10.10;;
58208;SDS011;44006;52.028;4.696;2022-08-19T11:11:25;17.92;;;10.57;;
58208;SDS011;44006;52.028;4.696;2022-08-19T11:13:50;13.55;;;8.77;;
58208;SDS011;44006;52.028;4.696;2022-08-19T11:16:17;12.27;;;8.00;;
58208;SDS011;44006;52.028;4.696;2022-08-19T11:18:44;11.05;;;6.65;;
58208;SDS011;44006;52.028;4.696;2022-08-19T11:23:38;11.68;;;6.90;;
58208;SDS011;44006;52.028;4.696;2022-08-19T11:26:03;9.68;;;5.78;;
58208;SDS011;44006;52.028;4.696;2022-08-19T11:28:29;9.13;;;4.57;;
58208;SDS011;44006;52.028;4.696;2022-08-19T11:30:54;10.87;;;4.93;;
58208;SDS011;44006;52.028;4.696;2022-08-19T11:33:19;7.10;;;4.07;;
58208;SDS011;44006;52.028;4.696;2022-08-19T11:35:45;6.45;;;3.58;;
58208;SDS011;44006;52.028;4.696;2022-08-19T11:38:10;4.67;;;3.00;;
58208;SDS011;44006;52.028;4.696;2022-08-19T11:40:36;6.20;;;2.80;;
58208;SDS011;44006;52.028;4.696;2022-08-19T11:43:01;9.27;;;3.17;;
58208;SDS011;44006;52.028;4.696;2022-08-19T11:45:27;8.43;;;3.33;;
58208;SDS011;44006;52.028;4.696;2022-08-19T11:47:53;6.30;;;3.15;;
58208;SDS011;44006;52.028;4.696;2022-08-19T11:50:18;5.43;;;3.20;;
58208;SDS011;44006;52.028;4.696;2022-08-19T11:52:44;5.68;;;3.33;;
58208;SDS011;44006;52.028;4.696;2022-08-19T11:55:10;6.40;;;2.97;;
58208;SDS011;44006;52.028;4.696;2022-08-19T11:57:35;7.38;;;3.17;;
58208;SDS011;44006;52.028;4.696;2022-08-19T12:00:01;8.37;;;3.07;;
58208;SDS011;44006;52.028;4.696;2022-08-19T12:02:27;5.90;;;2.80;;
58208;SDS011;44006;52.028;4.696;2022-08-19T12:04:52;4.15;;;2.65;;
58208;SDS011;44006;52.028;4.696;2022-08-19T12:07:17;7.10;;;2.93;;
58208;SDS011;44006;52.028;4.696;2022-08-19T12:09:42;6.18;;;2.92;;
58208;SDS011;44006;52.028;4.696;2022-08-19T12:12:08;5.57;;;3.22;;
58208;SDS011;44006;52.028;4.696;2022-08-19T12:14:34;4.38;;;2.53;;
58208;SDS011;44006;52.028;4.696;2022-08-19T12:17:00;4.90;;;2.80;;
58208;SDS011;44006;52.028;4.696;2022-08-19T12:19:26;4.32;;;2.67;;
58208;SDS011;44006;52.028;4.696;2022-08-19T12:21:52;6.07;;;2.80;;
58208;SDS011;44006;52.028;4.696;2022-08-19T12:24:20;6.00;;;2.45;;
58208;SDS011;44006;52.028;4.696;2022-08-19T12:26:48;4.20;;;2.10;;
58208;SDS011;44006;52.028;4.696;2022-08-19T12:29:13;5.63;;;2.55;;
58208;SDS011;44006;52.028;4.696;2022-08-19T12:31:39;6.45;;;2.78;;
58208;SDS011;44006;52.028;4.696;2022-08-19T12:34:05;10.18;;;2.97;;
58208;SDS011;44006;52.028;4.696;2022-08-19T12:36:30;8.57;;;2.55;;
58208;SDS011;44006;52.028;4.696;2022-08-19T12:38:57;7.30;;;2.67;;
58208;SDS011;44006;52.028;4.696;2022-08-19T12:41:22;4.25;;;2.50;;
58208;SDS011;44006;52.028;4.696;2022-08-19T12:43:49;6.43;;;2.40;;
58208;SDS011;44006;52.028;4.696;2022-08-19T12:46:14;7.97;;;3.00;;
58208;SDS011;44006;52.028;4.696;2022-08-19T12:48:39;8.70;;;2.83;;
58208;SDS011;44006;52.028;4.696;2022-08-19T12:51:08;4.95;;;2.97;;
58208;SDS011;44006;52.028;4.696;2022-08-19T12:53:34;6.05;;;2.80;;
58208;SDS011;44006;52.028;4.696;2022-08-19T12:55:59;5.53;;;3.10;;
58208;SDS011;44006;52.028;4.696;2022-08-19T12:58:25;6.40;;;3.05;;
58208;SDS011;44006;52.028;4.696;2022-08-19T13:00:50;4.88;;;2.78;;
58208;SDS011;44006;52.028;4.696;2022-08-19T13:03:16;3.88;;;2.50;;
58208;SDS011;44006;52.028;4.696;2022-08-19T13:05:41;4.63;;;2.80;;
58208;SDS011;44006;52.028;4.696;2022-08-19T13:08:06;6.32;;;3.10;;
58208;SDS011;44006;52.028;4.696;2022-08-19T13:10:32;5.35;;;3.05;;
58208;SDS011;44006;52.028;4.696;2022-08-19T13:13:00;4.75;;;3.08;;
58208;SDS011;44006;52.028;4.696;2022-08-19T13:15:26;6.97;;;3.40;;
58208;SDS011;44006;52.028;4.696;2022-08-19T13:17:53;3.97;;;2.72;;
58208;SDS011;44006;52.028;4.696;2022-08-19T13:20:20;10.63;;;3.40;;
58208;SDS011;44006;52.028;4.696;2022-08-19T13:22:46;5.32;;;2.88;;
58208;SDS011;44006;52.028;4.696;2022-08-19T13:25:12;5.70;;;2.83;;
58208;SDS011;44006;52.028;4.696;2022-08-19T13:27:38;6.40;;;2.60;;
58208;SDS011;44006;52.028;4.696;2022-08-19T13:30:05;8.57;;;2.67;;
58208;SDS011;44006;52.028;4.696;2022-08-19T13:32:49;4.82;;;2.92;;
58208;SDS011;44006;52.028;4.696;2022-08-19T13:35:33;5.15;;;3.20;;
58208;SDS011;44006;52.028;4.696;2022-08-19T13:37:58;4.30;;;2.67;;
58208;SDS011;44006;52.028;4.696;2022-08-19T13:40:24;9.40;;;4.17;;
58208;SDS011;44006;52.028;4.696;2022-08-19T13:42:52;5.10;;;3.85;;
58208;SDS011;44006;52.028;4.696;2022-08-19T13:45:19;8.48;;;5.60;;
58208;SDS011;44006;52.028;4.696;2022-08-19T13:47:49;9.55;;;5.85;;
58208;SDS011;44006;52.028;4.696;2022-08-19T13:50:16;8.38;;;5.32;;
58208;SDS011;44006;52.028;4.696;2022-08-19T13:52:42;7.97;;;4.40;;
58208;SDS011;44006;52.028;4.696;2022-08-19T13:55:07;9.30;;;4.05;;
58208;SDS011;44006;52.028;4.696;2022-08-19T13:57:33;8.13;;;3.60;;
58208;SDS011;44006;52.028;4.696;2022-08-19T13:59:59;10.93;;;4.28;;
58208;SDS011;44006;52.028;4.696;2022-08-19T14:02:24;8.13;;;5.40;;
58208;SDS011;44006;52.028;4.696;2022-08-19T14:04:51;7.38;;;5.28;;
58208;SDS011;44006;52.028;4.696;2022-08-19T14:07:16;8.52;;;5.18;;
58208;SDS011;44006;52.028;4.696;2022-08-19T14:09:41;7.82;;;4.50;;
58208;SDS011;44006;52.028;4.696;2022-08-19T14:12:06;6.97;;;4.70;;
58208;SDS011;44006;52.028;4.696;2022-08-19T14:14:35;7.28;;;4.07;;
58208;SDS011;44006;52.028;4.696;2022-08-19T14:17:01;10.07;;;5.57;;
58208;SDS011;44006;52.028;4.696;2022-08-19T14:19:26;9.55;;;5.82;;
58208;SDS011;44006;52.028;4.696;2022-08-19T14:21:51;10.33;;;7.73;;
58208;SDS011;44006;52.028;4.696;2022-08-19T14:24:16;11.68;;;8.02;;
58208;SDS011;44006;52.028;4.696;2022-08-19T14:26:41;12.43;;;8.17;;
58208;SDS011;44006;52.028;4.696;2022-08-19T14:29:07;12.55;;;8.40;;
58208;SDS011;44006;52.028;4.696;2022-08-19T14:31:32;13.23;;;8.97;;
58208;SDS011;44006;52.028;4.696;2022-08-19T14:33:57;11.93;;;8.47;;
58208;SDS011;44006;52.028;4.696;2022-08-19T14:36:22;10.87;;;8.30;;
58208;SDS011;44006;52.028;4.696;2022-08-19T14:38:49;14.20;;;8.48;;
58208;SDS011;44006;52.028;4.696;2022-08-19T14:41:21;12.80;;;8.40;;